Impacts METAR Board INFO
IDs:

KTPA - Tampa Intl Arpt, FL, US

Updated at: 0730 UTC 16 Jan 2018
Potential Impact None Slight Moderate High
Time15/19Z 15/20Z 15/21Z 15/22Z 15/23Z 16/00Z 16/01Z 16/02Z 16/03Z 16/04Z 16/05Z 16/06Z 16/07Z
VIS10 10 10 10 10 10 10 10 10 10 10 10 10
CIG-- -- -- -- -- -- -- -- -- -- -- -- --
CoverFEWFEWFEWFEWFEWFEWCLRFEWFEWFEWFEWSCTSCT
FltCatVFRVFRVFRVFRVFRVFRVFRVFRVFRVFRVFRVFRVFR
WX--------------------------
WDir030020104040404040504030
WSpd6 9 6 6 6 7 7 7 7 6 6 5 7
WGst-- -- -- -- -- -- -- -- 15 -- -- -- --
Raw hourly METARs
KTPA 151853Z VRB06KT 10SM FEW250 19/06 A3030 RMK AO2 SLP260 T01940056
KTPA 151953Z 03009KT 10SM FEW250 20/06 A3029 RMK AO2 SLP255 T02000061
KTPA 152053Z VRB06KT 10SM FEW250 21/06 A3029 RMK AO2 SLP256 T02060061 55017
KTPA 152153Z 02006KT 10SM FEW250 20/06 A3029 RMK AO2 SLP257 T02000056
KTPA 152253Z 01006KT 10SM FEW250 18/05 A3031 RMK AO2 SLP263 T01830050
KTPA 152353Z 04007KT 10SM FEW250 17/06 A3033 RMK AO2 SLP270 T01670056 10211 20167 53015
KTPA 160053Z 04007KT 10SM CLR 15/06 A3035 RMK AO2 SLP277 T01500056
KTPA 160153Z 04007KT 10SM FEW100 14/05 A3037 RMK AO2 SLP282 T01390050
KTPA 160253Z 04007G15KT 10SM FEW055 13/03 A3037 RMK AO2 SLP283 T01280033 51013
KTPA 160353Z 04006KT 10SM FEW060 12/03 A3037 RMK AO2 SLP285 T01170033
KTPA 160453Z 05006KT 10SM FEW055 11/04 A3037 RMK AO2 SLP285 T01060039 402110072
KTPA 160553Z 04005KT 10SM SCT060 10/04 A3036 RMK AO2 SLP280 T01000044 10167 20100 58003
KTPA 160653Z 03007KT 10SM SCT060 09/04 A3035 RMK AO2 SLP276 T00940044